FR-0043 weather

Public forecast

Using degrees Celsius for public forecast. Weather courtesy of forecast.io.

Closest aviation weather report (METAR) to Centre Hospitalier W. Morey Heliport

Closest report is Dole-Tavaux Airport, 28.5 nm (52.7 km) NE. Retrieved 2020/08/09 08:30 UTC (0 seconds ago):

LFGJ 090830Z AUTO 10003KT 040V150 CAVOK 28/15 Q1017 NOSIG

Closest aviation forecast (TAF) to Centre Hospitalier W. Morey Heliport

Forecast is more than 12 hours old.

Closest forecast is Dole-Tavaux Airport, 28.5 nm (52.7 km) NE. Retrieved 2020/06/22 09:21 UTC (2 months ago):

TAF LFGJ 220800Z 2209/2221 01008KT 9999 FEW035 BKN053 BECMG 2212/2215 CAVOK